Main page
METAR-TAF:

METAR-TAF

Airports :

Rundu Airport

Rundu, Namibia

latitude: 17-57-20S, longitude: 019-43-25E, elevation: 1106 m

METAR: missing

Time: 10:13 (08:13 UTC)

Forecast

The report was made 3 hours and 13 minutes ago, at 05:00 UTC
Forecast valid from 20 at 06 UTC to 20 at 15 UTC
Wind kt from the North
Visibility 10 km or more
no clouds below 1500 m and no cumulonimbus
Becoming
from 20 at 09 UTC to 20 at 11 UTC
Wind 9 kt from the East
Visibility 10 km or more
Scattered clouds at a height of 5000 ft

TAF: FYRU 200500Z 2006/2015 00000KT CAVOK BECMG 2009/2011 10009KT 9999 SCT050

Weather observations and forecasts of more than 4000 airports (METAR and TAF reports).

The available stations are represented by yellow and red dots on the map.

Hover mouse over dot to see the name of the station.

Then click to see weather observations and forecasts.

To change the map : click on the green buttons with a black cross to zoom in, on the green button with a dash to zoom out, or on the green arrows for adjacent maps.


METAR-TAF: